Latest Weather Observations for Tasman Island

IDT60801

Issued at 10:32 am EDT Monday 19 February 2018 (issued every 30 minutes, with the page automatically refreshed every 10 minutes)

About weather observations | Map of weather stations | Latest weather observations for TAS | Other Formats
Station Details ID: 094155 Name: TASMAN ISLAND Lat: -43.24 Lon: 148.00 Height: 240.0 m
Data from the previous 72 hours. | See also: Recent months at Tasman Island
Date/Time
EDT
Temp
°C
App
Temp
°C
Dew
Point
°C
Rel
Hum
%
Delta-T
°C
Wind Press
QNH
hPa
Press
MSL
hPa
Rain since
9am
mm
Dir  Spd
km/h
Gust
km/h
Spd
kts
Gust
kts
19/10:30am 11.1 6.6 4.1 62 3.1 S 17 32 9 17 1024.5 1024.2 0.0
19/10:00am 11.0 6.3 3.3 59 3.4 S 17 32 9 17 1024.2 1023.9 0.0
19/09:30am 10.7 6.2 4.0 63 3.0 S 17 28 9 15 1024.0 1023.7 0.0
19/09:00am 10.5 6.3 3.8 63 3.0 S 15 24 8 13 1023.8 1023.5 0.0
19/08:30am 10.6 6.1 4.1 64 2.9 S 17 30 9 16 1023.4 1023.1 0.0
19/08:00am 10.7 5.5 2.5 57 3.5 SSW 19 32 10 17 1022.9 1022.7 0.0
19/07:30am 10.3 5.4 4.0 65 2.8 S 19 28 10 15 1022.5 1022.3 0.0
19/07:00am 10.3 5.5 4.7 68 2.5 S 19 30 10 16 1022.0 1021.8 0.0
19/06:30am 10.3 5.6 5.1 70 2.4 S 19 30 10 16 1021.6 1021.4 0.0
19/06:00am 10.4 5.3 4.1 65 2.8 SSW 20 35 11 19 1021.2 1020.9 0.0
19/05:30am 10.5 4.5 3.5 62 3.1 SSW 24 37 13 20 1020.8 1020.5 0.0
19/05:00am 10.3 5.5 4.5 67 2.6 SSW 19 28 10 15 1020.7 1020.4 0.0
19/04:30am 10.3 5.5 4.7 68 2.6 S 19 33 10 18 1020.5 1020.2 0.0
19/04:00am 10.4 5.8 5.4 71 2.3 S 19 35 10 19 1020.4 1020.1 0.0
19/03:30am 10.5 5.9 5.7 72 2.2 S 19 33 10 18 1020.3 1020.0 0.0
19/03:00am 10.6 5.9 6.0 73 2.2 S 20 33 11 18 1020.1 1019.8 0.0
19/02:30am 10.4 3.7 3.4 62 3.1 SSW 28 44 15 24 1020.0 1019.7 0.0
19/02:00am 10.7 5.5 5.3 69 2.5 SSW 22 33 12 18 1019.9 1019.6 0.0
19/01:30am 10.5 5.6 5.3 70 2.4 SSW 20 32 11 17 1019.8 1019.5 0.0
19/01:00am 10.6 5.6 6.4 75 2.0 SSW 22 35 12 19 1019.8 1019.5 0.0
19/12:30am 11.2 5.2 5.5 68 2.7 SSW 26 41 14 22 1019.6 1019.3 0.0
19/12:00am 11.1 6.2 6.8 75 2.1 SSW 22 39 12 21 1019.5 1019.2 0.0
 
Date/Time
EDT
Temp
°C
App
Temp
°C
Dew
Point
°C
Rel
Hum
%
Delta-T
°C
Wind Press
QNH
hPa
Press
MSL
hPa
Rain since
9am
mm
Dir  Spd
km/h
Gust
km/h
Spd
kts
Gust
kts
18/11:30pm 11.4 5.4 5.3 66 2.8 SSW 26 43 14 23 1019.2 1018.9 0.0
18/11:00pm 11.3 5.2 6.4 72 2.3 SSW 28 39 15 21 1019.1 1018.8 0.0
18/10:30pm 11.6 6.1 5.9 68 2.7 SSW 24 39 13 21 1018.7 1018.5 0.0
18/10:00pm 11.8 5.6 6.3 69 2.6 SSW 28 48 15 26 1018.4 1018.2 0.0
18/09:57pm 11.8 5.4 5.4 65 3.0 SSW 28 48 15 26 1018.3 1018.1 0.0
18/09:30pm 11.7 5.8 5.8 67 2.8 SSW 26 43 14 23 1018.0 1017.8 0.0
18/09:00pm 11.7 5.0 5.6 66 2.9 SSW 30 48 16 26 1017.7 1017.4 0.0
18/08:56pm 11.8 5.5 5.7 66 2.9 SSW 28 48 15 26 1017.6 1017.3 0.0
18/08:30pm 11.8 6.3 5.7 66 2.9 SSW 24 46 13 25 1017.4 1017.1 0.0
18/08:00pm 11.7 6.1 5.3 65 3.0 SSW 24 46 13 25 1016.7 1016.4 0.0
18/07:30pm 11.8 5.8 5.4 65 3.0 SSW 26 41 14 22 1016.3 1016.0 0.0
18/07:00pm 11.9 6.4 6.0 67 2.8 SSW 24 41 13 22 1016.1 1015.8 0.0
18/06:30pm 12.2 6.9 6.7 69 2.7 SSW 24 44 13 24 1015.5 1015.2 0.0
18/06:13pm 12.1 5.8 5.9 66 2.9 SW 28 48 15 26 1015.2 1014.9 0.0
18/06:00pm 12.0 6.6 6.3 68 2.7 SSW 24 43 13 23 1015.1 1014.8 0.0
18/05:30pm 12.4 6.3 6.7 68 2.8 SSW 28 48 15 26 1014.6 1014.3 0.0
18/05:00pm 12.6 5.8 5.3 61 3.4 SW 30 52 16 28 1014.3 1014.0 0.0
18/04:30pm 12.7 6.5 6.1 64 3.2 SW 28 48 15 26 1014.1 1013.8 0.0
18/04:26pm 12.7 6.0 5.6 62 3.4 SW 30 48 16 26 1014.1 1013.8 0.0
18/04:00pm 12.7 7.3 6.3 65 3.1 SSW 24 41 13 22 1013.9 1013.6 0.0
18/03:30pm 12.9 7.5 6.3 64 3.2 SSW 24 41 13 22 1013.4 1013.1 0.0
18/03:00pm 12.6 7.3 6.6 67 2.9 SSW 24 43 13 23 1013.3 1013.0 0.0
18/02:30pm 12.9 8.6 7.1 68 2.8 SSW 19 35 10 19 1013.4 1013.1 0.0
18/02:00pm 12.7 7.2 7.4 70 2.6 SSW 26 50 14 27 1013.4 1013.1 0.0
18/01:31pm 13.0 7.0 7.0 67 2.9 SW 28 50 15 27 1013.1 1012.8 0.0
18/01:30pm 13.1 7.5 7.3 68 2.9 SW 26 50 14 27 1013.1 1012.8 0.0
18/01:00pm 12.7 8.2 6.3 65 3.1 SSW 19 44 10 24 1013.1 1012.8 0.0
18/12:30pm 12.5 7.6 7.0 69 2.7 SSW 22 43 12 23 1012.9 1012.6 0.0
18/12:02pm 12.4 6.3 6.7 68 2.8 SSW 28 48 15 26 1012.7 1012.4 0.0
18/12:00pm 12.4 6.7 6.7 68 2.8 SW 26 48 14 26 1012.7 1012.4 0.0
18/11:30am 12.4 6.4 6.9 69 2.7 SSW 28 48 15 26 1012.5 1012.2 0.0
18/11:00am 12.3 6.6 8.2 76 2.0 SSW 28 54 15 29 1012.3 1012.0 0.0
18/10:57am 12.1 6.3 8.0 76 2.0 SSW 28 54 15 29 1012.3 1012.0 0.0
18/10:30am 12.1 8.1 9.1 82 1.5 SSW 20 48 11 26 1012.2 1011.9 0.0
18/10:00am 12.4 7.2 8.7 78 1.9 SSW 26 46 14 25 1011.8 1011.5 0.0
18/09:54am 12.3 6.8 9.1 81 1.6 SSW 28 46 15 25 1011.7 1011.4 0.0
18/09:30am 12.6 9.9 8.9 78 1.9 SW 13 30 7 16 1011.5 1011.2 0.0
18/09:00am 12.3 8.2 8.8 79 1.8 SW 20 43 11 23 1011.1 1010.8 3.0
18/08:30am 12.3 8.3 8.2 76 2.0 SSW 19 48 10 26 1010.9 1010.6 3.0
18/08:00am 12.1 8.0 8.0 76 2.0 SSW 19 43 10 23 1010.6 1010.2 3.0
18/07:45am 12.0 6.2 8.1 77 1.9 SW 28 48 15 26 1010.5 1010.1 3.0
18/07:30am 12.1 7.2 8.4 78 1.9 SW 24 48 13 26 1010.4 1010.0 3.0
18/07:00am 11.8 5.7 8.1 78 1.8 SW 30 54 16 29 1010.1 1009.7 3.0
18/06:59am 11.8 6.0 8.1 78 1.8 SW 28 50 15 27 1010.1 1009.7 3.0
18/06:30am 11.8 8.0 9.2 84 1.3 SW 19 46 10 25 1009.7 1009.4 3.0
18/06:00am 11.7 8.4 10.8 94 0.5 SW 19 50 10 27 1008.9 1008.6 3.0
18/05:30am 11.8 8.0 11.2 96 0.3 SW 22 48 12 26 1008.5 1008.2 3.0
18/05:18am 11.9 7.0 11.4 97 0.3 SW 28 56 15 30 1008.2 1007.9 3.0
18/05:00am 11.9 8.2 11.4 97 0.3 SW 22 54 12 29 1008.1 1007.8 2.8
18/04:30am 11.7 6.4 11.2 97 0.3 SW 30 57 16 31 1007.8 1007.5 2.8
18/04:00am 12.1 6.9 11.6 97 0.3 SW 30 61 16 33 1007.5 1007.2 2.4
18/03:30am 12.5 7.0 11.9 96 0.3 SSW 32 54 17 29 1007.2 1006.8 2.0
18/03:14am 12.6 7.8 11.8 95 0.4 SSW 28 56 15 30 1007.2 1006.8 1.8
18/03:00am 12.7 10.0 11.8 94 0.5 SW 17 41 9 22 1007.2 1006.8 1.6
18/02:30am 14.0 12.7 12.6 91 0.8 NW 11 24 6 13 1007.1 1006.7 1.2
18/02:00am 14.3 13.4 12.5 89 1.0 WSW 9 28 5 15 1006.9 1006.5 1.2
18/01:30am 14.7 13.1 11.5 81 1.7 WNW 11 44 6 24 1006.9 1006.5 0.6
18/01:00am 15.5 13.1 11.3 76 2.3 W 15 30 8 16 1006.6 1006.2 0.0
18/12:30am 16.1 12.8 10.8 71 2.9 WNW 19 30 10 16 1006.2 1005.8 0.0
18/12:00am 16.1 14.2 10.4 69 3.1 W 11 30 6 16 1005.8 1005.4 0.0
 
Date/Time
EDT
Temp
°C
App
Temp
°C
Dew
Point
°C
Rel
Hum
%
Delta-T
°C
Wind Press
QNH
hPa
Press
MSL
hPa
Rain since
9am
mm
Dir  Spd
km/h
Gust
km/h
Spd
kts
Gust
kts
17/11:30pm 16.5 12.9 9.9 65 3.5 W 19 43 10 23 1005.4 1005.1 0.0
17/11:00pm 16.4 13.7 10.3 67 3.3 NW 15 39 8 21 1005.3 1005.0 0.0
17/10:30pm 16.6 14.6 10.2 66 3.4 WSW 11 50 6 27 1005.2 1004.9 0.0
17/10:00pm 16.7 12.6 11.4 71 2.9 WNW 24 44 13 24 1005.4 1005.1 0.0
17/09:30pm 17.3 15.6 11.3 68 3.3 W 11 28 6 15 1004.9 1004.6 0.0
17/09:06pm 17.5 12.6 11.3 67 3.4 NW 28 46 15 25 1004.4 1004.1 0.0
17/09:00pm 17.4 13.8 11.7 69 3.2 WNW 22 46 12 25 1004.4 1004.1 0.0
17/08:39pm 17.6 12.6 10.9 65 3.6 WNW 28 52 15 28 1004.0 1003.7 0.0
17/08:30pm 17.8 13.2 10.9 64 3.8 NW 26 50 14 27 1003.9 1003.6 0.0
17/08:00pm 18.0 15.0 10.6 62 4.0 WNW 17 39 9 21 1003.6 1003.2 0.0
17/07:30pm 18.2 12.7 10.6 61 4.1 WNW 30 50 16 27 1003.3 1002.9 0.0
17/07:00pm 18.2 11.7 10.3 60 4.3 NW 35 65 19 35 1002.8 1002.4 0.0
17/06:48pm 18.4 13.3 10.5 60 4.3 NW 28 52 15 28 1002.8 1002.4 0.0
17/06:30pm 18.9 14.8 10.2 57 4.7 WNW 22 44 12 24 1002.7 1002.3 0.0
17/06:00pm 19.4 14.9 10.1 55 5.1 WNW 24 46 13 25 1003.0 1002.6 0.0
17/05:30pm 18.5 12.2 9.6 56 4.8 WNW 33 65 18 35 1003.1 1002.7 0.0
17/05:19pm 18.5 12.7 9.6 56 4.8 WNW 30 61 16 33 1002.9 1002.5 0.0
17/05:00pm 18.5 14.8 9.6 56 4.8 WNW 19 44 10 24 1003.3 1002.9 0.0
17/04:30pm 18.3 15.4 9.6 57 4.6 W 15 35 8 19 1003.5 1003.1 0.0
17/04:00pm 17.9 11.1 9.3 57 4.6 NW 35 57 19 31 1003.3 1002.9 0.0
17/03:56pm 17.9 11.5 9.3 57 4.6 NW 33 57 18 31 1003.2 1002.8 0.0
17/03:30pm 18.4 11.1 8.9 54 5.0 NW 37 52 20 28 1003.7 1003.3 0.0
17/03:00pm 17.4 11.1 8.8 57 4.5 WNW 32 56 17 30 1003.8 1003.5 0.0
17/02:32pm 17.2 11.6 8.6 57 4.5 WNW 28 50 15 27 1004.0 1003.7 0.0
17/02:30pm 17.2 12.1 9.1 59 4.3 WNW 26 46 14 25 1004.0 1003.7 0.0
17/02:00pm 17.1 9.4 8.5 57 4.5 NW 39 59 21 32 1004.3 1004.0 0.0
17/01:46pm 16.9 9.9 8.6 58 4.3 NW 35 56 19 30 1004.5 1004.2 0.0
17/01:30pm 16.9 10.4 8.3 57 4.4 NW 32 50 17 27 1004.5 1004.2 0.0
17/01:18pm 16.7 10.6 8.1 57 4.4 NW 30 50 16 27 1004.7 1004.4 0.0
17/01:00pm 16.6 11.3 8.6 59 4.2 NW 26 33 14 18 1005.1 1004.8 0.0
17/12:30pm 16.2 12.0 8.2 59 4.1 NW 20 33 11 18 1005.4 1005.1 0.0
17/12:00pm 16.6 12.0 8.3 58 4.3 NW 22 32 12 17 1005.6 1005.3 0.0
17/11:30am 16.0 10.9 7.7 58 4.2 NW 24 35 13 19 1005.6 1005.3 0.0
17/11:00am 15.2 11.0 7.5 60 3.9 NW 19 41 10 22 1005.6 1005.3 0.0
17/10:30am 14.5 9.3 7.1 61 3.7 NW 24 41 13 22 1006.3 1005.9 0.0
17/10:00am 14.3 8.7 7.1 62 3.6 NW 26 41 14 22 1006.5 1006.1 0.0
17/09:30am 14.2 8.6 7.0 62 3.6 NW 26 44 14 24 1006.5 1006.1 0.0
17/09:00am 13.8 8.9 6.7 62 3.5 NW 22 44 12 24 1006.5 1006.1 0.0
17/08:30am 13.7 6.7 6.1 60 3.7 NW 32 43 17 23 1006.5 1006.1 0.0
17/08:00am 13.2 8.9 6.8 65 3.1 NW 19 28 10 15 1006.7 1006.3 0.0
17/07:30am 12.9 8.3 6.7 66 3.0 NW 20 33 11 18 1006.3 1005.9 0.0
17/07:00am 12.8 7.0 6.4 65 3.1 NW 26 37 14 20 1006.2 1005.8 0.0
17/06:30am 12.6 7.3 6.6 67 2.9 NW 24 33 13 18 1006.2 1005.8 0.0
17/06:00am 12.3 7.0 6.6 68 2.8 NW 24 35 13 19 1006.0 1005.6 0.0
17/05:30am 12.1 7.1 6.6 69 2.7 NW 22 32 12 17 1006.0 1005.6 0.0
17/05:00am 11.9 6.9 6.4 69 2.6 NW 22 33 12 18 1005.9 1005.5 0.0
17/04:30am 12.0 8.1 6.9 71 2.5 NW 17 24 9 13 1006.3 1005.9 0.0
17/04:00am 12.4 7.5 7.1 70 2.6 NW 22 32 12 17 1006.5 1006.1 0.0
17/03:30am 12.6 7.7 7.1 69 2.7 WNW 22 37 12 20 1006.7 1006.3 0.0
17/03:00am 12.4 6.3 6.5 67 2.9 NW 28 43 15 23 1006.5 1006.1 0.0
17/02:30am 12.3 7.3 6.6 68 2.8 NNW 22 30 12 16 1006.7 1006.3 0.0
17/02:00am 12.7 8.1 6.7 67 2.9 NW 20 32 11 17 1006.9 1006.5 0.0
17/01:30am 13.0 10.1 6.4 64 3.2 W 11 24 6 13 1007.4 1007.1 0.0
17/01:00am 13.1 10.1 5.8 61 3.5 WSW 11 35 6 19 1007.6 1007.3 0.0
17/12:30am 12.8 10.0 6.8 67 2.9 WNW 11 33 6 18 1007.4 1007.1 0.0
17/12:00am 12.9 10.4 6.5 65 3.1 WSW 9 32 5 17 1007.4 1007.1 0.0
 
Date/Time
EDT
Temp
°C
App
Temp
°C
Dew
Point
°C
Rel
Hum
%
Delta-T
°C
Wind Press
QNH
hPa
Press
MSL
hPa
Rain since
9am
mm
Dir  Spd
km/h
Gust
km/h
Spd
kts
Gust
kts
16/11:30pm 13.1 10.2 6.5 64 3.2 WNW 11 35 6 19 1007.3 1006.9 0.0
16/11:00pm 13.0 10.1 6.4 64 3.2 W 11 39 6 21 1007.3 1006.9 0.0
16/10:30pm 13.1 9.8 6.5 64 3.2 WNW 13 30 7 16 1007.7 1007.4 0.0
16/10:00pm 13.0 9.3 6.4 64 3.2 NW 15 30 8 16 1007.5 1007.2 0.0
16/09:30pm 13.0 10.8 6.1 63 3.3 WSW 7 26 4 14 1007.4 1007.1 0.0
16/09:00pm 12.7 9.7 5.8 63 3.3 W 11 37 6 20 1006.9 1006.5 0.0
16/08:30pm 12.9 10.2 5.6 61 3.5 WSW 9 33 5 18 1006.6 1006.2 0.0
16/08:00pm 12.9 10.0 6.3 64 3.2 WNW 11 41 6 22 1006.1 1005.7 0.0
16/07:30pm 13.2 9.5 6.1 62 3.4 SW 15 41 8 22 1005.4 1005.1 0.0
16/07:00pm 13.2 10.6 6.3 63 3.3 NW 9 33 5 18 1005.4 1005.1 0.0
16/06:30pm 13.2 10.0 4.9 57 3.9 NW 11 43 6 23 1005.3 1005.0 0.0
16/06:00pm 13.2 10.1 5.6 60 3.6 NW 11 35 6 19 1005.3 1005.0 0.0
16/05:30pm 13.9 10.0 5.3 56 4.1 WNW 15 35 8 19 1004.7 1004.4 0.0
16/05:00pm 13.5 9.6 5.2 57 3.9 NNW 15 50 8 27 1004.5 1004.2 0.0
16/04:30pm 13.4 9.9 5.6 59 3.7 NNE 13 41 7 22 1004.3 1004.0 0.0
16/04:00pm 13.5 10.4 5.4 58 3.9 SW 11 43 6 23 1004.7 1004.4 0.0
16/03:30pm 13.7 10.0 6.1 60 3.7 NNW 15 43 8 23 1004.5 1004.2 0.0
16/03:00pm 13.5 9.7 5.9 60 3.7 NW 15 43 8 23 1004.5 1004.2 0.0
16/02:30pm 13.1 8.6 6.0 62 3.4 NW 19 50 10 27 1004.4 1004.1 0.0
16/02:00pm 12.4 8.0 4.6 59 3.6 NNW 17 59 9 32 1004.1 1003.8 0.0
16/01:30pm 13.9 10.9 5.8 58 3.9 WSW 11 41 6 22 1003.8 1003.5 0.0
16/01:00pm 12.2 8.1 4.4 59 3.6 NW 15 44 8 24 1003.7 1003.3 0.0
16/12:30pm 13.3 10.1 5.0 57 3.9 N 11 44 6 24 1003.7 1003.3 0.0
16/12:00pm 12.6 9.7 4.6 58 3.7 NNW 9 33 5 18 1004.2 1003.9 0.0
16/11:30am 11.9 8.6 4.6 61 3.4 NNW 11 39 6 21 1004.2 1003.9 0.0
16/11:00am 11.9 7.9 4.9 62 3.3 S 15 54 8 29 1003.3 1002.9 0.0

Other Formats:

Comma delimited format used in spreadsheet applications
http://www.bom.gov.au/fwo/IDT60801/IDT60801.95986.axf

JavaScript Object Notation format (JSON) in row-major order
http://www.bom.gov.au/fwo/IDT60801/IDT60801.95986.json